RJFC(METAR)
06/25 08:30
RJFC 242330Z 07015KT 2500 RA FEW003 SCT005 BKN007 23/23 Q1014 RMK
A2995=
戻る
トップページへ戻る
IMOC Co,.Ltd.